Time;durP1;ratioP1;P1;durP2;ratioP2;P2;SDS_P1;SDS_P2;PMS_P1;PMS_P2;Temp;Humidity;BMP_temperature;BMP_pressure;BME280_temperature;BME280_humidity;BME280_pressure;Samples;Min_cycle;Max_cycle;Signal;HPM_P1;HPM_P2
2024/01/28 09:47:55;;;;;;;11.53;6.10;;;;;;;1.18;100.00;100634.91;5129434;27;20600;-82
2024/01/28 09:50:23;;;;;;;9.83;5.93;;;;;;;1.82;100.00;100644.66;5129461;27;40503;-80
2024/01/28 09:52:51;;;;;;;7.80;5.30;;;;;;;2.39;100.00;100657.75;5110954;27;43627;-81
2024/01/28 09:55:18;;;;;;;9.53;5.23;;;;;;;2.78;100.00;100646.34;5129363;27;42870;-81
2024/01/28 09:57:47;;;;;;;8.73;5.70;;;;;;;3.23;100.00;100634.84;5129529;27;42174;-81
2024/01/28 10:00:16;;;;;;;7.80;5.70;;;;;;;4.61;100.00;100661.84;5127960;27;38939;-82
2024/01/28 10:02:44;;;;;;;6.50;4.80;;;;;;;5.63;97.02;100672.94;5110529;27;42684;-81
2024/01/28 10:05:14;;;;;;;8.23;5.60;;;;;;;6.44;91.52;100691.91;5129319;27;42822;-82
2024/01/28 10:07:43;;;;;;;8.90;4.70;;;;;;;6.47;85.87;100675.19;5127823;27;41508;-81
2024/01/28 10:10:13;;;;;;;7.50;4.60;;;;;;;6.64;82.07;100702.13;5127834;27;39021;-81
2024/01/28 10:12:40;;;;;;;6.93;4.30;;;;;;;6.66;83.74;100692.44;5111683;27;43887;-81
2024/01/28 10:15:16;;;;;;;7.13;4.70;;;;;;;6.40;82.90;100663.94;5111474;27;41720;-81
2024/01/28 10:17:47;;;;;;;8.43;4.87;;;;;;;7.00;80.87;100676.03;5128741;27;43100;-82
2024/01/28 10:20:17;;;;;;;6.47;4.07;;;;;;;7.03;80.07;100660.16;5126815;27;39599;-82
2024/01/28 10:22:45;;;;;;;8.93;4.30;;;;;;;6.82;78.89;100674.59;5111683;27;42575;-82
2024/01/28 10:25:15;;;;;;;9.53;5.03;;;;;;;7.16;78.86;100683.63;5128572;27;42863;-82
2024/01/28 10:27:43;;;;;;;7.20;4.57;;;;;;;8.29;73.96;100682.00;5111200;27;42374;-82
2024/01/28 10:30:12;;;;;;;8.83;4.70;;;;;;;9.11;68.70;100699.31;5111511;27;38718;-83
2024/01/28 10:32:40;;;;;;;6.20;4.07;;;;;;;10.71;66.65;100703.28;5111461;27;42022;-82
2024/01/28 10:35:09;;;;;;;8.47;5.30;;;;;;;12.61;59.59;100708.56;5111550;27;43191;-83
2024/01/28 10:37:39;;;;;;;6.73;4.47;;;;;;;15.62;51.46;100747.63;5111136;27;41470;-84
2024/01/28 10:40:09;;;;;;;8.87;4.73;;;;;;;17.08;44.45;100761.66;5128485;27;39598;-84
2024/01/28 10:42:40;;;;;;;5.93;4.70;;;;;;;18.01;43.58;100750.63;5127836;27;42114;-85
2024/01/28 10:45:10;;;;;;;6.70;4.43;;;;;;;19.74;39.31;100767.72;5124235;27;42818;-85
2024/01/28 10:47:40;;;;;;;7.23;4.10;;;;;;;20.83;36.46;100774.19;5109169;27;43913;-85
2024/01/28 10:50:11;;;;;;;6.67;4.77;;;;;;;20.74;35.88;100770.34;5110449;27;38606;-85
2024/01/28 10:52:42;;;;;;;7.47;4.37;;;;;;;20.84;37.14;100748.97;5144189;27;42145;-86
2024/01/28 10:55:10;;;;;;;5.90;3.80;;;;;;;21.63;35.72;100754.56;5109715;27;44303;-86
2024/01/28 10:57:38;;;;;;;8.43;4.50;;;;;;;22.97;30.70;100754.47;5104809;28;41522;-85
2024/01/28 11:00:10;;;;;;;6.53;4.90;;;;;;;25.12;30.81;100766.03;5096236;28;38657;-87
2024/01/28 11:02:40;;;;;;;5.93;4.13;;;;;;;27.05;27.99;100776.28;5096093;28;40652;-86
2024/01/28 11:05:08;;;;;;;5.03;3.97;;;;;;;28.51;26.26;100763.69;5096172;28;42852;-86
2024/01/28 11:07:37;;;;;;;7.43;4.50;;;;;;;30.00;24.42;100778.03;5095867;28;42771;-87
2024/01/28 11:10:09;;;;;;;6.00;4.15;;;;;;;31.22;22.12;100782.09;5096016;28;39329;-88
2024/01/28 11:12:39;;;;;;;4.30;3.55;;;;;;;32.05;21.33;100760.94;5096996;28;40879;-87
2024/01/28 11:15:12;;;;;;;6.05;3.78;;;;;;;32.84;19.41;100763.91;5096835;28;41874;-88
2024/01/28 11:17:40;;;;;;;6.35;3.58;;;;;;;33.38;19.39;100768.94;5096918;28;41651;-88
2024/01/28 11:20:08;;;;;;;5.60;3.65;;;;;;;33.59;19.17;100757.91;5113868;28;40699;-88
2024/01/28 11:22:50;;;;;;;3.45;3.15;;;;;;;32.16;19.98;100743.16;5113980;28;41960;-86
2024/01/28 11:25:21;;;;;;;6.85;3.95;;;;;;;30.00;22.54;100706.13;5096807;28;42997;-87
2024/01/28 11:27:49;;;;;;;5.63;4.03;;;;;;;28.15;24.18;100708.50;5097158;28;41744;-88
2024/01/28 11:30:20;;;;;;;5.80;4.30;;;;;;;26.08;26.52;100684.44;5097027;28;38942;-87
2024/01/28 11:32:48;;;;;;;6.93;4.10;;;;;;;24.45;28.08;100660.28;5097020;28;42115;-88
2024/01/28 11:35:15;;;;;;;4.20;3.77;;;;;;;23.99;29.14;100646.31;5096818;28;41592;-87
2024/01/28 11:37:51;;;;;;;6.53;4.25;;;;;;;25.20;27.40;100665.88;5096899;28;42405;-88
2024/01/28 11:40:24;;;;;;;4.78;3.85;;;;;;;27.24;24.50;100678.16;5095249;28;39451;-87
2024/01/28 11:42:54;;;;;;;5.57;4.03;;;;;;;29.08;22.18;100701.09;5095263;28;43122;-87
2024/01/28 11:45:24;;;;;;;6.00;3.47;;;;;;;30.62;20.68;100706.19;5095538;28;41860;-89
2024/01/28 11:47:52;;;;;;;4.45;3.30;;;;;;;31.93;20.80;100698.53;5095337;28;42513;-89
2024/01/28 11:50:19;;;;;;;4.85;3.17;;;;;;;32.37;20.41;100691.16;5095308;28;39293;-88
2024/01/28 11:52:47;;;;;;;5.80;3.35;;;;;;;32.39;19.54;100691.78;5095228;28;43656;-88
2024/01/28 11:55:17;;;;;;;5.40;3.80;;;;;;;31.79;19.17;100694.75;5095114;28;41377;-89
2024/01/28 11:57:47;;;;;;;4.03;3.63;;;;;;;31.41;20.11;100688.44;5095184;28;42992;-87
2024/01/28 12:00:16;;;;;;;4.47;3.30;;;;;;;32.23;19.04;100691.19;5112727;28;40803;-89
2024/01/28 12:02:44;;;;;;;4.38;3.65;;;;;;;33.27;18.79;100670.56;5095488;28;40850;-88
2024/01/28 12:05:11;;;;;;;6.07;3.20;;;;;;;34.32;17.90;100704.28;5095062;28;42513;-89
2024/01/28 12:07:40;;;;;;;5.40;3.63;;;;;;;34.71;17.71;100708.22;5095074;28;43869;-87
2024/01/28 12:10:09;;;;;;;5.93;2.78;;;;;;;34.85;16.69;100698.97;5093841;28;39002;-88
2024/01/28 12:12:37;;;;;;;5.05;3.22;;;;;;;35.26;17.22;100694.13;5130222;27;42259;-89
2024/01/28 12:15:08;;;;;;;4.13;2.97;;;;;;;35.52;17.23;100681.41;5096063;28;41996;-87
2024/01/28 12:17:36;;;;;;;5.40;3.10;;;;;;;35.24;16.95;100687.09;5130031;27;41555;-88
2024/01/28 12:20:06;;;;;;;5.82;3.25;;;;;;;34.59;17.31;100684.03;5095857;28;40269;-89
2024/01/28 12:22:37;;;;;;;4.82;3.20;;;;;;;34.59;17.46;100675.78;5095685;28;41295;-89
2024/01/28 12:25:11;;;;;;;4.80;3.28;;;;;;;35.15;17.16;100675.44;5095988;28;43617;-89
2024/01/28 12:27:39;;;;;;;4.80;3.20;;;;;;;35.74;16.93;100682.88;5095965;28;42469;-88
2024/01/28 12:30:10;;;;;;;3.58;2.92;;;;;;;36.05;16.68;100668.38;5096164;28;40426;-89
2024/01/28 12:32:38;;;;;;;4.53;3.08;;;;;;;36.30;16.76;100662.97;5096335;28;40477;-89
2024/01/28 12:35:09;;;;;;;4.43;3.05;;;;;;;36.41;16.34;100651.25;5096110;28;43081;-89
2024/01/28 12:37:38;;;;;;;3.95;3.15;;;;;;;36.67;16.57;100661.28;5095820;28;41157;-90
2024/01/28 12:40:07;;;;;;;5.13;2.78;;;;;;;36.83;16.26;100652.50;5094344;28;39832;-89
2024/01/28 12:42:35;;;;;;;3.95;2.90;;;;;;;36.91;15.82;100666.03;5093988;28;40907;-90
2024/01/28 12:45:03;;;;;;;3.35;2.92;;;;;;;36.85;16.14;100627.38;5112272;28;43379;-90
2024/01/28 12:47:34;;;;;;;5.18;3.40;;;;;;;36.89;16.00;100640.53;5094706;28;41311;-88
2024/01/28 12:50:03;;;;;;;4.15;3.13;;;;;;;36.93;16.48;100646.47;5094816;28;38810;-90
2024/01/28 12:52:30;;;;;;;3.00;2.75;;;;;;;36.80;15.71;100627.22;5094299;28;41477;-90
2024/01/28 12:54:58;;;;;;;3.58;2.90;;;;;;;36.60;15.67;100630.94;5094593;28;43046;-90
2024/01/28 12:57:26;;;;;;;4.78;3.22;;;;;;;36.38;15.94;100618.56;5094386;28;43038;-90
2024/01/28 12:59:53;;;;;;;3.28;2.97;;;;;;;36.26;15.87;100628.59;5094502;28;38984;-91
2024/01/28 13:02:21;;;;;;;5.35;3.15;;;;;;;36.07;16.57;100629.53;5128599;27;41717;-91
2024/01/28 13:04:50;;;;;;;5.25;2.88;;;;;;;35.45;16.38;100636.47;5094297;28;42080;-89
2024/01/28 13:07:18;;;;;;;3.78;2.75;;;;;;;34.36;17.77;100592.75;5093887;28;41292;-91
2024/01/28 13:09:45;;;;;;;4.85;3.30;;;;;;;34.00;17.03;100608.69;5128073;27;38945;-90
2024/01/28 13:12:14;;;;;;;4.25;2.90;;;;;;;33.51;17.20;100561.06;5094829;28;41210;-89
2024/01/28 13:14:41;;;;;;;3.63;3.00;;;;;;;33.18;18.64;100577.31;5095003;28;44306;-89
2024/01/28 13:17:10;;;;;;;5.07;3.30;;;;;;;32.61;18.58;100571.97;5095080;28;42550;-91
2024/01/28 13:19:38;;;;;;;3.63;2.97;;;;;;;31.75;18.27;100584.72;5095370;28;38757;-90
2024/01/28 13:22:07;;;;;;;4.60;3.47;;;;;;;29.25;19.98;100563.59;5094679;28;41929;-89
2024/01/28 13:24:35;;;;;;;3.23;2.93;;;;;;;27.57;21.17;100553.22;5098763;28;42520;-91
2024/01/28 13:27:03;;;;;;;3.40;3.10;;;;;;;26.37;22.65;100542.16;5094771;28;41315;-89
2024/01/28 13:29:35;;;;;;;3.60;2.77;;;;;;;24.93;23.64;100532.91;5095169;28;38480;-90
2024/01/28 13:32:03;;;;;;;5.97;3.60;;;;;;;23.37;25.06;100526.66;5093143;28;41429;-89
2024/01/28 13:34:31;;;;;;;7.03;2.97;;;;;;;22.08;26.35;100512.59;5094350;28;42704;-89
2024/01/28 13:36:58;;;;;;;5.10;3.07;;;;;;;20.98;27.67;100511.75;5093804;28;41313;-87
2024/01/28 13:39:27;;;;;;;4.77;2.97;;;;;;;20.17;28.89;100504.56;5093880;28;41760;-88
2024/01/28 13:41:55;;;;;;;4.13;3.10;;;;;;;19.11;29.71;100466.78;5092288;28;40880;-89
2024/01/28 13:44:23;;;;;;;4.13;2.87;;;;;;;18.49;31.31;100480.13;5093698;28;41887;-89
2024/01/28 13:46:50;;;;;;;6.10;3.40;;;;;;;17.80;32.08;100470.56;5093086;28;41133;-89
2024/01/28 13:49:18;;;;;;;4.37;3.10;;;;;;;17.20;32.75;100468.19;5094049;28;41284;-89
2024/01/28 13:51:46;;;;;;;4.87;2.97;;;;;;;16.66;33.76;100460.03;5093201;28;42758;-89
2024/01/28 13:54:13;;;;;;;3.67;2.73;;;;;;;16.15;34.79;100450.66;5092966;28;43288;-88
2024/01/28 13:56:42;;;;;;;4.70;3.23;;;;;;;15.76;35.55;100461.88;5093412;28;41075;-89
2024/01/28 13:59:10;;;;;;;5.23;3.53;;;;;;;15.28;36.13;100439.69;5110473;28;40650;-89
2024/01/28 14:01:38;;;;;;;4.77;3.00;;;;;;;14.99;36.18;100444.00;5092531;28;40819;-89
2024/01/28 14:04:06;;;;;;;5.53;3.00;;;;;;;14.62;36.90;100433.59;5093565;28;42137;-89
2024/01/28 14:06:33;;;;;;;3.53;2.33;;;;;;;14.31;37.47;100421.03;5092610;28;41588;-88
2024/01/28 14:09:01;;;;;;;3.57;2.93;;;;;;;14.08;38.43;100422.25;5093421;28;39289;-89
2024/01/28 14:11:29;;;;;;;4.83;3.13;;;;;;;13.98;39.18;100413.84;5093211;28;42659;-89
2024/01/28 14:13:58;;;;;;;4.33;2.97;;;;;;;14.19;38.66;100405.69;5094682;28;42303;-85
2024/01/28 14:16:28;;;;;;;4.10;2.83;;;;;;;14.45;38.36;100428.34;5093430;28;41037;-84
2024/01/28 14:18:55;;;;;;;4.80;3.30;;;;;;;15.39;37.66;100429.28;5111177;28;39867;-83
2024/01/28 14:21:28;;;;;;;3.53;3.00;;;;;;;16.10;36.19;100440.22;5093132;28;41916;-84
2024/01/28 14:23:55;;;;;;;5.77;2.70;;;;;;;16.14;36.10;100428.41;5094035;28;42617;-85
2024/01/28 14:26:23;;;;;;;4.97;2.70;;;;;;;17.07;35.46;100427.97;5093039;28;41322;-85
2024/01/28 14:28:51;;;;;;;4.10;2.77;;;;;;;17.77;34.19;100438.59;5112488;28;40722;-84
2024/01/28 14:31:22;;;;;;;4.50;2.77;;;;;;;18.10;33.34;100430.94;5093364;28;41461;-85
2024/01/28 14:33:51;;;;;;;5.20;3.57;;;;;;;18.25;32.65;100443.31;5095953;28;41471;-84
2024/01/28 14:36:19;;;;;;;5.87;3.13;;;;;;;18.43;32.82;100437.59;5096715;28;41527;-84
2024/01/28 14:38:46;;;;;;;4.77;2.93;;;;;;;18.57;32.49;100429.44;5096890;28;38828;-84
2024/01/28 14:41:15;;;;;;;4.67;3.00;;;;;;;18.18;32.98;100431.25;5094441;28;40925;-84
2024/01/28 14:43:43;;;;;;;3.10;2.40;;;;;;;17.89;32.54;100437.78;5096048;28;41695;-83
2024/01/28 14:46:11;;;;;;;4.57;2.63;;;;;;;18.01;32.83;100426.22;5095164;28;40756;-86
2024/01/28 14:48:40;;;;;;;5.63;3.17;;;;;;;18.41;32.29;100435.06;5113427;28;40140;-85
2024/01/28 14:51:07;;;;;;;4.27;3.33;;;;;;;18.73;31.87;100435.50;5112524;28;42811;-84
2024/01/28 14:53:36;;;;;;;4.47;2.77;;;;;;;18.73;31.63;100440.00;5094958;28;41672;-85
2024/01/28 14:56:05;;;;;;;3.13;2.47;;;;;;;18.39;32.31;100453.06;5112038;28;42484;-85
2024/01/28 14:58:32;;;;;;;5.03;2.87;;;;;;;17.88;32.93;100446.75;5113297;28;38740;-85
2024/01/28 15:01:00;;;;;;;4.43;2.70;;;;;;;17.14;33.73;100444.50;5094830;28;41268;-84
2024/01/28 15:03:27;;;;;;;4.30;2.70;;;;;;;16.36;34.52;100429.78;5095315;28;42115;-84
2024/01/28 15:05:57;;;;;;;4.57;2.90;;;;;;;15.80;35.01;100436.72;5111815;28;42158;-84
2024/01/28 15:08:24;;;;;;;5.10;3.17;;;;;;;15.25;36.12;100429.19;5095580;28;39414;-83
2024/01/28 15:10:52;;;;;;;3.30;2.00;;;;;;;14.74;36.82;100427.59;5112431;28;43943;-83
2024/01/28 15:13:21;;;;;;;3.40;2.17;;;;;;;14.17;37.90;100410.25;5096116;28;45313;-83
2024/01/28 15:15:48;;;;;;;3.87;2.80;;;;;;;13.84;39.13;100424.38;5113091;28;44006;-83
2024/01/28 15:18:16;;;;;;;4.83;2.50;;;;;;;13.45;39.47;100421.91;5096378;28;39051;-83
2024/01/28 15:20:43;;;;;;;3.90;2.53;;;;;;;13.09;39.70;100421.84;5096032;28;43784;-84
2024/01/28 15:23:13;;;;;;;4.70;2.20;;;;;;;12.72;40.18;100408.56;5094701;28;43071;-86
2024/01/28 15:25:40;;;;;;;4.93;2.23;;;;;;;12.49;41.11;100407.81;5112653;28;42689;-83
2024/01/28 15:28:09;;;;;;;4.23;2.20;;;;;;;12.20;42.54;100402.97;5094914;28;38877;-86
2024/01/28 15:30:36;;;;;;;4.53;2.40;;;;;;;11.92;43.41;100395.34;5095204;28;42614;-86
2024/01/28 15:33:04;;;;;;;2.47;2.10;;;;;;;11.56;43.30;100381.81;5113095;28;44053;-86
2024/01/28 15:35:32;;;;;;;3.97;2.10;;;;;;;11.42;43.49;100400.09;5113103;28;43127;-83
2024/01/28 15:38:00;;;;;;;4.97;2.37;;;;;;;11.11;43.48;100385.47;5113180;28;39387;-84
2024/01/28 15:40:29;;;;;;;3.10;2.27;;;;;;;10.87;43.66;100381.13;5111842;28;40753;-85
2024/01/28 15:42:57;;;;;;;3.13;2.30;;;;;;;10.75;44.20;100392.22;5094981;28;41804;-85
2024/01/28 15:45:24;;;;;;;4.23;2.50;;;;;;;10.49;44.09;100374.66;5094977;28;41138;-83
2024/01/28 15:47:52;;;;;;;5.27;2.60;;;;;;;10.29;44.30;100375.38;5111544;28;39915;-86
2024/01/28 15:50:19;;;;;;;3.03;2.30;;;;;;;10.16;44.57;100387.31;5094829;28;41020;-85
2024/01/28 15:52:47;;;;;;;5.13;2.57;;;;;;;9.92;45.02;100380.25;5110157;28;41996;-83
2024/01/28 15:55:15;;;;;;;4.43;2.43;;;;;;;9.81;45.34;100390.34;5113314;28;43158;-85
2024/01/28 15:57:45;;;;;;;4.03;2.10;;;;;;;9.65;44.90;100404.09;5094444;28;39175;-82
2024/01/28 16:00:14;;;;;;;4.47;2.50;;;;;;;9.39;45.09;100387.41;5112305;28;42669;-86
2024/01/28 16:02:42;;;;;;;5.50;2.70;;;;;;;9.23;45.06;100381.75;5094089;28;41911;-83
2024/01/28 16:05:11;;;;;;;3.63;2.47;;;;;;;9.08;45.30;100376.97;5094280;28;41532;-86
2024/01/28 16:07:38;;;;;;;3.97;2.93;;;;;;;9.02;46.04;100398.31;5093972;28;39227;-85
2024/01/28 16:10:07;;;;;;;4.53;3.30;;;;;;;8.86;46.63;100401.44;5094436;28;41969;-84
2024/01/28 16:12:34;;;;;;;4.20;3.00;;;;;;;8.50;46.29;100368.22;5094789;28;41956;-82
2024/01/28 16:15:04;;;;;;;4.43;3.03;;;;;;;8.44;46.33;100378.94;5095546;28;42252;-85
2024/01/28 16:17:33;;;;;;;7.77;3.40;;;;;;;8.25;46.89;100363.63;5094595;28;41267;-85
2024/01/28 16:20:01;;;;;;;4.80;3.73;;;;;;;8.20;46.84;100372.56;5095524;28;41819;-82
2024/01/28 16:22:29;;;;;;;4.20;3.20;;;;;;;8.09;47.24;100378.16;5094976;28;42472;-87
2024/01/28 16:24:57;;;;;;;5.27;3.40;;;;;;;7.77;47.52;100344.75;5114235;28;42276;-83
2024/01/28 16:27:24;;;;;;;4.60;3.13;;;;;;;7.92;47.57;100385.66;5095548;28;39099;-85
2024/01/28 16:29:52;;;;;;;6.80;4.63;;;;;;;7.73;48.88;100352.78;5111640;28;41128;-83
2024/01/28 16:32:21;;;;;;;5.57;4.00;;;;;;;7.35;49.77;100312.47;5094929;28;41801;-84
2024/01/28 16:34:49;;;;;;;6.73;4.40;;;;;;;7.48;50.95;100347.28;5095025;28;41058;-85
2024/01/28 16:37:17;;;;;;;6.13;4.63;;;;;;;7.41;51.43;100356.28;5094851;28;40187;-82
2024/01/28 16:39:47;;;;;;;6.67;4.83;;;;;;;7.10;51.81;100324.56;5094702;28;41769;-82
2024/01/28 16:42:15;;;;;;;6.23;5.13;;;;;;;7.10;52.65;100340.34;5095208;28;41671;-82
2024/01/28 16:44:43;;;;;;;7.10;4.70;;;;;;;6.71;52.91;100298.28;5095288;28;40876;-83
2024/01/28 16:47:13;;;;;;;8.47;5.20;;;;;;;7.04;52.54;100370.38;5094283;28;41360;-85
2024/01/28 16:49:42;;;;;;;8.83;5.13;;;;;;;6.95;52.64;100374.97;5094893;28;40709;-87
2024/01/28 16:52:10;;;;;;;6.80;5.10;;;;;;;6.72;54.20;100344.78;5092658;28;41847;-87
2024/01/28 16:54:39;;;;;;;9.00;5.50;;;;;;;6.61;55.76;100330.13;5092487;28;41485;-88
2024/01/28 16:57:17;;;;;;;6.90;5.27;;;;;;;6.37;58.68;100292.06;5110302;28;39229;-86
2024/01/28 17:00:00;;;;;;;;;;;;;;;;;;;;;
2024/01/28 17:02:39;;;;;;;7.03;5.83;;;;;;;6.06;60.18;100270.81;5095159;28;41932;-88
2024/01/28 17:05:10;;;;;;;9.77;5.97;;;;;;;6.38;61.16;100331.50;5093763;28;41307;-88
2024/01/28 17:07:51;;;;;;;7.40;5.00;;;;;;;5.82;61.11;100253.78;5093250;28;39722;-89
2024/01/28 17:10:19;;;;;;;7.67;5.27;;;;;;;6.23;61.69;100338.84;5095045;28;40788;-88
2024/01/28 17:12:46;;;;;;;7.13;5.13;;;;;;;6.15;61.70;100335.53;5095129;28;41849;-86
2024/01/28 17:15:17;;;;;;;7.77;5.00;;;;;;;6.08;61.49;100340.03;5112601;28;42390;-86
2024/01/28 17:17:45;;;;;;;10.60;5.77;;;;;;;6.07;62.39;100338.31;5092761;28;40913;-83
2024/01/28 17:20:15;;;;;;;12.13;6.17;;;;;;;5.95;62.16;100347.31;5112173;28;42139;-86
2024/01/28 17:22:42;;;;;;;9.50;5.20;;;;;;;5.84;62.13;100338.72;5095311;28;41672;-86
2024/01/28 17:25:10;;;;;;;8.57;5.10;;;;;;;5.89;60.98;100363.22;5111075;28;41261;-87
2024/01/28 17:27:38;;;;;;;9.70;5.87;;;;;;;5.72;61.69;100342.47;5095165;28;38890;-88
2024/01/28 17:30:06;;;;;;;8.07;5.70;;;;;;;5.78;61.82;100367.78;5075348;28;41526;-86
2024/01/28 17:32:34;;;;;;;8.53;5.07;;;;;;;5.61;61.79;100349.69;5109683;27;41699;-89
2024/01/28 17:35:03;;;;;;;11.17;5.77;;;;;;;5.52;62.34;100338.50;5110927;28;41980;-89
2024/01/28 17:37:32;;;;;;;9.17;5.53;;;;;;;5.59;62.92;100361.13;5101656;28;39179;-86
2024/01/28 17:40:00;;;;;;;8.63;5.97;;;;;;;5.45;64.09;100350.00;5099886;28;40671;-89
2024/01/28 17:42:27;;;;;;;9.40;6.50;;;;;;;5.33;65.51;100341.44;5099692;28;42259;-87
2024/01/28 17:44:55;;;;;;;10.07;6.10;;;;;;;5.31;64.58;100353.75;5098763;28;41131;-82
2024/01/28 17:47:22;;;;;;;8.47;6.00;;;;;;;5.13;65.27;100335.66;5115870;28;40199;-82
2024/01/28 17:49:50;;;;;;;9.07;5.43;;;;;;;5.29;66.58;100360.78;5098654;28;40849;-82
2024/01/28 17:52:17;;;;;;;8.37;6.40;;;;;;;5.09;67.89;100333.97;5111050;28;42863;-86
2024/01/28 17:54:46;;;;;;;8.93;5.90;;;;;;;5.17;67.72;100361.00;5110243;28;43257;-87
2024/01/28 17:57:14;;;;;;;8.97;5.87;;;;;;;5.11;69.75;100355.81;5093835;28;38862;-83
2024/01/28 17:59:41;;;;;;;11.13;6.43;;;;;;;4.98;68.44;100351.66;5110366;28;42191;-83
2024/01/28 18:02:09;;;;;;;8.73;5.53;;;;;;;5.02;67.39;100363.84;5092108;28;41663;-83
2024/01/28 18:04:36;;;;;;;9.13;6.00;;;;;;;4.84;67.98;100337.88;5111068;28;42223;-82
2024/01/28 18:07:04;;;;;;;11.23;5.87;;;;;;;4.82;68.34;100348.41;5110453;27;38937;-83
2024/01/28 18:09:32;;;;;;;11.90;7.20;;;;;;;4.88;68.90;100366.69;5096953;28;42114;-83
2024/01/28 18:12:01;;;;;;;12.10;7.70;;;;;;;4.68;67.64;100343.38;5116471;28;42569;-81
2024/01/28 18:14:28;;;;;;;11.77;7.80;;;;;;;4.70;66.83;100361.72;5115429;28;43368;-83
2024/01/28 18:16:56;;;;;;;9.83;7.03;;;;;;;4.62;66.23;100359.22;5115165;28;39879;-83
2024/01/28 18:19:23;;;;;;;11.63;7.73;;;;;;;4.67;67.26;100378.41;5115419;28;40662;-83
2024/01/28 18:21:51;;;;;;;11.27;6.90;;;;;;;4.60;68.86;100368.84;5097782;28;41847;-82
2024/01/28 18:24:19;;;;;;;12.63;7.80;;;;;;;4.58;68.08;100375.88;5115307;28;43181;-83
2024/01/28 18:26:47;;;;;;;10.97;6.80;;;;;;;4.55;68.53;100377.69;5114876;28;38903;-83
2024/01/28 18:29:17;;;;;;;12.77;7.37;;;;;;;4.51;68.81;100376.00;5098128;28;40816;-83
2024/01/28 18:31:45;;;;;;;10.40;6.50;;;;;;;4.48;69.25;100379.53;5097842;28;44765;-82
2024/01/28 18:34:13;;;;;;;9.40;6.77;;;;;;;4.44;68.88;100380.47;5098158;28;42300;-83
2024/01/28 18:36:41;;;;;;;9.37;6.60;;;;;;;4.29;70.00;100357.94;5114678;28;38952;-81
2024/01/28 18:39:10;;;;;;;9.23;6.70;;;;;;;4.32;70.24;100364.88;5097445;28;43330;-81
2024/01/28 18:41:38;;;;;;;9.53;6.73;;;;;;;4.32;71.08;100367.50;5112780;28;43906;-81
2024/01/28 18:44:06;;;;;;;10.07;6.40;;;;;;;4.31;71.92;100368.41;5115088;28;42294;-82
2024/01/28 18:46:35;;;;;;;11.17;7.00;;;;;;;4.22;73.43;100352.75;5113535;28;39967;-82
2024/01/28 18:49:02;;;;;;;10.93;6.40;;;;;;;4.20;73.58;100354.56;5113901;28;40708;-83
2024/01/28 18:51:30;;;;;;;10.67;6.90;;;;;;;4.25;73.39;100371.09;5096194;28;43294;-82
2024/01/28 18:53:58;;;;;;;12.23;7.43;;;;;;;3.82;74.32;100300.00;5113971;28;42805;-83
2024/01/28 18:56:25;;;;;;;11.53;6.67;;;;;;;4.08;74.25;100344.22;5113404;28;39954;-82
2024/01/28 18:58:53;;;;;;;9.43;6.97;;;;;;;4.07;73.72;100353.84;5096897;28;41449;-84
2024/01/28 19:01:20;;;;;;;9.97;6.50;;;;;;;4.03;73.64;100349.50;5113517;28;43796;-84
2024/01/28 19:03:51;;;;;;;9.83;6.60;;;;;;;4.12;74.02;100361.63;5113582;28;41246;-83
2024/01/28 19:06:18;;;;;;;9.90;7.00;;;;;;;4.10;73.81;100360.78;5096241;28;38908;-82
2024/01/28 19:08:46;;;;;;;9.93;6.60;;;;;;;4.06;74.60;100356.47;5113616;28;41900;-81
2024/01/28 19:11:13;;;;;;;8.87;6.50;;;;;;;3.88;74.79;100326.97;5096533;28;43373;-81
2024/01/28 19:13:41;;;;;;;9.07;6.23;;;;;;;3.88;74.02;100342.69;5115596;28;41954;-82
2024/01/28 19:16:09;;;;;;;11.63;6.93;;;;;;;3.95;73.10;100364.47;5097374;28;38737;-82
2024/01/28 19:18:36;;;;;;;13.43;7.27;;;;;;;3.91;72.63;100363.63;5113699;27;43098;-83
2024/01/28 19:21:06;;;;;;;10.70;7.33;;;;;;;3.88;72.21;100362.78;5097038;28;42348;-82
2024/01/28 19:23:34;;;;;;;9.53;6.43;;;;;;;3.84;71.97;100367.19;5097781;28;43829;-82
2024/01/28 19:26:03;;;;;;;12.77;6.97;;;;;;;3.80;71.34;100369.88;5114246;28;40895;-81
2024/01/28 19:28:30;;;;;;;12.17;6.77;;;;;;;3.69;72.08;100353.41;5114321;28;42655;-82
2024/01/28 19:30:58;;;;;;;12.83;8.00;;;;;;;3.58;71.60;100348.28;5096608;28;41947;-81
2024/01/28 19:33:27;;;;;;;13.57;8.87;;;;;;;3.56;72.35;100350.91;5096854;28;40902;-83
2024/01/28 19:35:55;;;;;;;14.43;8.33;;;;;;;3.64;71.97;100376.16;5096738;28;38940;-83
2024/01/28 19:38:24;;;;;;;13.87;8.50;;;;;;;3.55;71.19;100369.28;5114243;28;41409;-82
2024/01/28 19:40:51;;;;;;;12.03;7.73;;;;;;;3.55;70.55;100379.75;5111889;28;42797;-82
2024/01/28 19:43:19;;;;;;;12.37;7.83;;;;;;;3.50;70.43;100379.78;5095951;28;43324;-82
2024/01/28 19:45:47;;;;;;;10.03;6.53;;;;;;;3.47;70.02;100376.31;5110551;28;38970;-81
2024/01/28 19:48:15;;;;;;;10.00;7.13;;;;;;;3.44;69.80;100373.75;5112740;28;40348;-82
2024/01/28 19:50:42;;;;;;;13.20;7.97;;;;;;;3.40;71.68;100375.53;5112247;28;42686;-81
2024/01/28 19:53:10;;;;;;;14.47;8.00;;;;;;;3.25;70.63;100355.56;5112791;28;42862;-84
2024/01/28 19:55:39;;;;;;;11.30;6.83;;;;;;;3.30;70.02;100367.75;5112496;28;38976;-82
2024/01/28 19:58:07;;;;;;;11.83;6.90;;;;;;;3.07;69.87;100334.81;5114065;28;41796;-82
2024/01/28 20:00:35;;;;;;;10.63;7.00;;;;;;;3.24;71.35;100356.44;5110892;28;42545;-82
2024/01/28 20:03:03;;;;;;;11.47;7.30;;;;;;;3.09;74.57;100333.00;5111557;28;42182;-82
2024/01/28 20:05:30;;;;;;;14.07;7.87;;;;;;;3.00;74.02;100324.38;5095467;28;39044;-83
2024/01/28 20:07:58;;;;;;;11.87;7.47;;;;;;;3.12;73.41;100348.69;5096912;28;43656;-81
2024/01/28 20:10:25;;;;;;;10.47;6.97;;;;;;;3.11;73.30;100356.56;5112905;28;42726;-81
2024/01/28 20:12:55;;;;;;;12.67;7.60;;;;;;;3.09;73.26;100351.34;5111801;28;42225;-82
2024/01/28 20:15:23;;;;;;;9.47;5.87;;;;;;;2.84;74.53;100310.59;5111309;28;39190;-82
2024/01/28 20:17:51;;;;;;;12.47;7.47;;;;;;;2.93;74.28;100334.03;5095465;28;41980;-82
2024/01/28 20:20:19;;;;;;;16.20;8.80;;;;;;;3.02;75.04;100343.56;5111821;28;42728;-81
2024/01/28 20:22:46;;;;;;;10.03;7.73;;;;;;;2.98;75.82;100347.94;5094662;28;41352;-80
2024/01/28 20:25:14;;;;;;;13.50;7.87;;;;;;;2.86;76.73;100319.25;5112978;28;39939;-83
2024/01/28 20:27:42;;;;;;;15.00;7.57;;;;;;;2.82;76.47;100317.56;5111589;28;43150;-82
2024/01/28 20:30:12;;;;;;;11.23;7.13;;;;;;;2.89;76.69;100333.19;5110601;27;43421;-81
2024/01/28 20:32:39;;;;;;;10.70;7.10;;;;;;;2.79;78.00;100310.59;5112085;28;41145;-82
2024/01/28 20:35:10;;;;;;;9.80;6.90;;;;;;;2.77;78.74;100303.63;5107881;28;40581;-82
2024/01/28 20:37:39;;;;;;;13.00;7.77;;;;;;;2.85;77.69;100322.75;5093954;28;40761;-82
2024/01/28 20:40:07;;;;;;;12.37;8.17;;;;;;;2.76;77.06;100307.13;5112290;28;42841;-81
2024/01/28 20:42:35;;;;;;;11.73;7.67;;;;;;;2.79;76.70;100334.16;5095160;28;42362;-81
2024/01/28 20:45:03;;;;;;;10.90;7.37;;;;;;;2.77;76.77;100335.03;5109279;28;39531;-82
2024/01/28 20:47:32;;;;;;;10.83;6.87;;;;;;;2.64;76.03;100323.78;5092104;28;40793;-80
2024/01/28 20:49:59;;;;;;;12.43;7.10;;;;;;;2.67;77.79;100323.78;5110267;28;42051;-81
2024/01/28 20:52:27;;;;;;;13.30;7.53;;;;;;;2.70;79.95;100329.00;5112300;28;43224;-82
2024/01/28 20:54:53;;;;;;;10.43;6.90;;;;;;;2.40;79.58;100282.13;5110899;28;38997;-82
2024/01/28 20:57:21;;;;;;;11.30;7.87;;;;;;;2.65;79.02;100329.88;5109781;28;42715;-82
2024/01/28 20:59:49;;;;;;;15.33;6.93;;;;;;;2.63;79.95;100331.66;5094762;28;42007;-82
2024/01/28 21:02:16;;;;;;;12.53;8.13;;;;;;;2.61;80.56;100322.94;5111048;28;41493;-81
2024/01/28 21:04:46;;;;;;;12.57;7.63;;;;;;;2.57;80.25;100331.69;5111723;28;40241;-82
2024/01/28 21:07:14;;;;;;;13.27;7.27;;;;;;;2.41;80.94;100305.66;5110608;28;40454;-82
2024/01/28 21:09:41;;;;;;;10.23;7.70;;;;;;;2.52;81.65;100332.59;5111012;28;42459;-80
2024/01/28 21:12:09;;;;;;;11.40;7.63;;;;;;;2.40;80.12;100332.66;5111725;28;42239;-82
2024/01/28 21:14:37;;;;;;;11.03;7.23;;;;;;;2.43;80.43;100340.50;5095140;28;39012;-81
2024/01/28 21:17:05;;;;;;;11.43;7.13;;;;;;;2.46;79.15;100353.56;5094038;28;43112;-82
2024/01/28 21:19:32;;;;;;;8.10;6.47;;;;;;;2.42;78.19;100349.22;5112188;28;42698;-81
2024/01/28 21:22:02;;;;;;;8.70;6.50;;;;;;;2.39;77.83;100353.59;5112098;28;44321;-80